Messwerte Tabas

Temperatur

Temperatur
°C
1573907400 16.00 16.00 16
1573911000 17.00 17.00 16
1573914600 18.00 18.00 15
1573918200 19.00 19.00 13
1573921800 20.00 20.00 13
1573925400 21.00 21.00 13
1573929000 22.00 22.00 12
1573932600 23.00 23.00 11
1573936200 0.00 0.00 9
1573939800 1.00 1.00
1573943400 2.00 2.00
1573947000 3.00 3.00
1573950600 4.00 4.00
1573954200 5.00 5.00 9
1573957800 6.00 6.00 10
1573961400 7.00 7.00
1573965000 8.00 8.00 8
1573968600 9.00 9.00 10
1573972200 10.00 10.00 11
1573975800 11.00 11.00
1573979400 12.00 12.00 15
1573983000 13.00 13.00 15
1573986600 14.00 14.00 16
1573990200 15.00 15.00 16

Aktuellste Messwerte

Temperatur
17 °C
Feuchtigkeit
25 %
Wind
5 km/hWindrichtung: West
Luftdruck
1023 hPa
Messzeit: 17. November 2019, 15.30Datenquelle: METAR

Weitere Messstationen in der Nähe

Messstation Temperatur Entfernung
Birjand 6 °C 227 km
Kashmar 6 °C 228 km
Yazd 8 °C 311 km
Kerman 8 °C 372 km
Mashhad 5 °C 386 km
Semnan 7 °C 390 km
Bojnourd 3 °C 432 km

Wind

Windrichtung Böen Mittelwind
° km/h km/h
1573907400 16.00 15.00 - 16.00 300° 5
1573911000 17.00 16.00 - 17.00 310° 5
1573914600 18.00 17.00 - 18.00 350° 5
1573918200 19.00 18.00 - 19.00 290° 15
1573921800 20.00 19.00 - 20.00 340° 10
1573925400 21.00 20.00 - 21.00 350° 5
1573929000 22.00 21.00 - 22.00 310° 10
1573932600 23.00 22.00 - 23.00 340° 5
1573936200 0.00 23.00 - 0.00 70° 5
1573939800 1.00 0.00 - 1.00
1573943400 2.00 1.00 - 2.00
1573947000 3.00 2.00 - 3.00
1573950600 4.00 3.00 - 4.00
1573954200 5.00 4.00 - 5.00 130° 5
1573957800 6.00 5.00 - 6.00 80° 5
1573961400 7.00 6.00 - 7.00
1573965000 8.00 7.00 - 8.00 120° 5
1573968600 9.00 8.00 - 9.00 130° 10
1573972200 10.00 9.00 - 10.00 180° 5
1573975800 11.00 10.00 - 11.00
1573979400 12.00 11.00 - 12.00 170° 5
1573983000 13.00 12.00 - 13.00 300° 5
1573986600 14.00 13.00 - 14.00 320° 5
1573990200 15.00 14.00 - 15.00 300° 5

Ihre Wetterstation

Fehlt Ihre Wetterstation auf unserem Portal?

Schreiben Sie an network@meteonews.ch

Klima

Wann ist es am wärmsten? Wann regnet es am wenigsten? Unsere Klimadaten geben Auskunft.